Rabun Gap, Georgia
Current Conditions -  °F | °C
As of 5:55 PM on Saturday 20 Dec 2014 (Local Time) from KTOC Reporting Station
Overcast Overcast  
Wind Chill: 44°   Ceiling: 1900
Heat Index: 44°   Visibility: 7mi
Dew Point: 43°   Wind: 0mph
Humidity: 95%   Direction: NA
Pressure: 30.19"   Gusts: NA
Location:  34.96°N, 83.39°W
Report Text: KTOC 202255Z AUTO 00000KT 7SM SCT007 OVC019 07/06 A3019 RMK AO2 T00680060
Loading
Personal Weather Stations






























Interactive Weather Map New forecast layout! Learn more

10-Day Weather Forecast

Advertisements
Track Severe Weather on mobile